createdAt,value
2019-02-12T00:00:01.858Z,101577.81
2019-02-12T00:02:30.330Z,101579.57
2019-02-12T00:04:58.822Z,101583.98
2019-02-12T00:07:27.281Z,101585.73
2019-02-12T00:09:55.754Z,101586.66
2019-02-12T00:12:24.210Z,101585.76
2019-02-12T00:14:52.728Z,101586.21
2019-02-12T00:17:21.151Z,101589.31
2019-02-12T00:19:49.646Z,101590.16
2019-02-12T00:22:18.175Z,101585.33
2019-02-12T00:24:46.673Z,101583.13
2019-02-12T00:27:15.147Z,101592.39
2019-02-12T00:29:43.645Z,101581.36
2019-02-12T00:32:12.105Z,101584.41
2019-02-12T00:34:40.605Z,101575.16
2019-02-12T00:37:09.101Z,101583.54
2019-02-12T00:39:37.561Z,101586.64
2019-02-12T00:42:06.046Z,101585.33
2019-02-12T00:44:34.532Z,101584.44
2019-02-12T00:47:03.011Z,101596.37
2019-02-12T00:49:31.630Z,101592.39
2019-02-12T00:52:00.080Z,101589.73
2019-02-12T00:54:28.568Z,101593.27
2019-02-12T00:56:57.035Z,101590.64
2019-02-12T00:59:25.524Z,101586.19
2019-02-12T01:01:55.553Z,101591.94
2019-02-12T01:04:24.098Z,101591.49
2019-02-12T01:06:52.569Z,101579.55
2019-02-12T01:09:21.187Z,101582.20
2019-02-12T01:11:49.654Z,101583.97
2019-02-12T01:14:18.188Z,101583.51
2019-02-12T01:16:46.643Z,101585.72
2019-02-12T01:19:15.132Z,101590.11
2019-02-12T01:21:43.611Z,101599.81
2019-02-12T01:24:12.079Z,101593.61
2019-02-12T01:26:40.666Z,101616.10
2019-02-12T01:29:09.133Z,101627.61
2019-02-12T01:31:37.620Z,101618.76
2019-02-12T01:34:06.078Z,101623.16
2019-02-12T01:36:34.639Z,101627.59
2019-02-12T01:39:04.779Z,101631.14
2019-02-12T01:41:33.261Z,101641.28
2019-02-12T01:44:01.732Z,101649.25
2019-02-12T01:46:30.224Z,101643.09
2019-02-12T01:48:58.694Z,101641.31
2019-02-12T01:51:34.964Z,101655.91
2019-02-12T01:53:57.376Z,101666.07
2019-02-12T01:56:25.863Z,101656.35
2019-02-12T01:58:54.312Z,101654.16
2019-02-12T02:01:22.802Z,101646.22
2019-02-12T02:03:51.251Z,101660.78
2019-02-12T02:06:19.739Z,101658.58
2019-02-12T02:08:48.190Z,101666.98
2019-02-12T02:11:16.675Z,101665.68
2019-02-12T02:13:45.130Z,101651.97
2019-02-12T02:16:13.608Z,101651.11
2019-02-12T02:18:42.073Z,101655.54
2019-02-12T02:21:10.555Z,101663.05
2019-02-12T02:23:39.014Z,101659.06
2019-02-12T02:26:07.500Z,101663.03
2019-02-12T02:28:35.953Z,101665.26
2019-02-12T02:31:04.434Z,101671.88
2019-02-12T02:33:32.889Z,101671.46
2019-02-12T02:36:01.372Z,101655.98
2019-02-12T02:38:29.819Z,101680.27
2019-02-12T02:40:58.311Z,101677.17
2019-02-12T02:43:26.790Z,101678.92
2019-02-12T02:45:55.250Z,101685.14
2019-02-12T02:48:23.702Z,101677.16
2019-02-12T02:50:52.184Z,101685.09
2019-02-12T02:53:20.634Z,101690.39
2019-02-12T02:55:49.112Z,101693.95
2019-02-12T02:58:17.594Z,101688.20
2019-02-12T03:00:46.039Z,101695.27
2019-02-12T03:03:14.515Z,101690.83
2019-02-12T03:05:42.994Z,101712.50
2019-02-12T03:08:11.453Z,101698.36
2019-02-12T03:10:39.953Z,101695.73
2019-02-12T03:13:08.382Z,101700.13
2019-02-12T03:15:36.864Z,101697.47
2019-02-12T03:18:05.320Z,101705.41
2019-02-12T03:20:33.778Z,101706.76
2019-02-12T03:23:02.276Z,101709.80
2019-02-12T03:25:30.726Z,101712.42
2019-02-12T03:27:59.201Z,101715.96
2019-02-12T03:30:27.674Z,101717.25
2019-02-12T03:32:56.179Z,101736.23
2019-02-12T03:35:24.628Z,101742.36
2019-02-12T03:37:53.103Z,101744.56
2019-02-12T03:40:21.637Z,101744.53
2019-02-12T03:42:50.135Z,101740.56
2019-02-12T03:45:18.602Z,101740.10
2019-02-12T03:47:47.155Z,101745.39
2019-02-12T03:50:15.619Z,101753.75
2019-02-12T03:52:44.089Z,101749.34
2019-02-12T03:55:13.697Z,101747.58
2019-02-12T03:57:42.843Z,101759.02
2019-02-12T04:00:15.840Z,101764.76
2019-02-12T04:02:59.066Z,101764.28
2019-02-12T04:05:27.524Z,101774.00
2019-02-12T04:07:56.000Z,101767.41
2019-02-12T04:10:24.459Z,101766.52
2019-02-12T04:12:52.932Z,101771.38
2019-02-12T04:15:21.456Z,101766.55
2019-02-12T04:17:49.949Z,101767.02
2019-02-12T04:20:18.408Z,101768.34
2019-02-12T04:22:46.890Z,101765.25
2019-02-12T04:25:15.341Z,101767.48
2019-02-12T04:27:43.822Z,101763.48
2019-02-12T04:30:12.354Z,101764.84
2019-02-12T04:32:40.836Z,101757.78
2019-02-12T04:35:09.298Z,101746.30
2019-02-12T04:37:37.780Z,101759.13
2019-02-12T04:40:09.371Z,101762.66
2019-02-12T04:42:37.851Z,101764.87
2019-02-12T04:45:11.216Z,101769.75
2019-02-12T04:47:39.702Z,101790.92
2019-02-12T04:50:11.446Z,101785.63
2019-02-12T04:52:39.935Z,101795.81
2019-02-12T04:55:10.434Z,101787.87
2019-02-12T04:57:38.916Z,101782.56
2019-02-12T05:00:17.613Z,101782.59
2019-02-12T05:02:46.171Z,101779.48
2019-02-12T05:05:14.632Z,101780.80
2019-02-12T05:07:43.109Z,101791.39
2019-02-12T05:10:14.895Z,101786.09
2019-02-12T05:12:43.385Z,101792.31
2019-02-12T05:15:11.839Z,101783.45
2019-02-12T05:17:40.320Z,101782.10
2019-02-12T05:20:13.584Z,101793.16
2019-02-12T05:22:43.868Z,101802.44
2019-02-12T05:25:13.175Z,101808.14
2019-02-12T05:27:41.669Z,101802.85
2019-02-12T05:30:12.320Z,101804.17
2019-02-12T05:32:40.802Z,101794.48
2019-02-12T05:35:09.321Z,101787.42
2019-02-12T05:37:37.789Z,101792.73
2019-02-12T05:40:10.409Z,101792.28
2019-02-12T05:42:38.890Z,101798.05
2019-02-12T05:45:12.627Z,101797.60
2019-02-12T05:47:41.281Z,101800.66
2019-02-12T05:50:12.184Z,101804.64
2019-02-12T05:52:40.669Z,101798.02
2019-02-12T05:55:09.362Z,101797.52
2019-02-12T05:57:37.787Z,101810.77
2019-02-12T06:00:12.031Z,101809.85
2019-02-12T06:02:40.478Z,101820.01
2019-02-12T06:05:08.947Z,101830.13
2019-02-12T06:07:37.401Z,101836.72
2019-02-12T06:10:09.293Z,101846.83
2019-02-12T06:12:37.742Z,101857.80
2019-02-12T06:15:07.175Z,101863.56
2019-02-12T06:17:35.641Z,101876.73
2019-02-12T06:20:04.770Z,101877.64
2019-02-12T06:22:33.230Z,101889.52
2019-02-12T06:25:01.714Z,101885.95
2019-02-12T06:27:30.162Z,101891.21
2019-02-12T06:29:58.642Z,101903.12
2019-02-12T06:32:27.094Z,101898.23
2019-02-12T06:34:55.576Z,101900.03
2019-02-12T06:37:24.011Z,101907.09
2019-02-12T06:39:52.501Z,101918.12
2019-02-12T06:42:20.946Z,101928.30
2019-02-12T06:44:49.435Z,101931.39
2019-02-12T06:47:17.883Z,101930.99
2019-02-12T06:49:46.365Z,101938.49
2019-02-12T06:52:14.815Z,101943.83
2019-02-12T06:54:43.288Z,101948.69
2019-02-12T06:57:11.747Z,101948.28
2019-02-12T06:59:40.219Z,101942.98
2019-02-12T07:02:45.355Z,101946.52
2019-02-12T07:05:13.770Z,101949.20
2019-02-12T07:08:20.118Z,101948.77
2019-02-12T07:10:50.843Z,101952.33
2019-02-12T07:13:22.370Z,101966.94
2019-02-12T07:15:50.910Z,101979.77
2019-02-12T07:18:51.047Z,101983.78
2019-02-12T07:21:31.333Z,101984.19
2019-02-12T07:24:12.072Z,101991.33
2019-02-12T07:26:55.679Z,102001.08
2019-02-12T07:30:00.567Z,102002.88
2019-02-12T07:32:48.409Z,102009.47
2019-02-12T07:35:48.360Z,102009.51
2019-02-12T07:38:25.934Z,102010.88
2019-02-12T07:41:19.924Z,102017.97
2019-02-12T07:43:51.287Z,102020.14
2019-02-12T07:46:48.641Z,102027.69
2019-02-12T07:49:25.901Z,102036.52
2019-02-12T07:52:09.460Z,102036.48
2019-02-12T07:55:05.115Z,102036.87
2019-02-12T07:58:02.413Z,102041.30
2019-02-12T08:00:39.570Z,102041.33
2019-02-12T08:03:13.836Z,102054.55
2019-02-12T08:06:05.877Z,102049.69
2019-02-12T08:08:40.297Z,102038.20
2019-02-12T08:11:11.825Z,102051.09
2019-02-12T08:13:49.046Z,102046.16
2019-02-12T08:16:38.483Z,102048.80
2019-02-12T08:19:29.333Z,102047.95
2019-02-12T08:22:28.039Z,102045.58
2019-02-12T08:25:16.506Z,102057.66
2019-02-12T08:28:16.718Z,102064.86
2019-02-12T08:30:57.042Z,102071.58
2019-02-12T08:33:31.440Z,102077.47
2019-02-12T08:36:08.618Z,102084.13
2019-02-12T08:38:46.009Z,102081.92
2019-02-12T08:41:49.335Z,102076.53
2019-02-12T08:44:29.730Z,102078.00
2019-02-12T08:47:19.304Z,102085.98
2019-02-12T08:49:56.287Z,102094.91
2019-02-12T08:52:27.809Z,102097.66
2019-02-12T08:55:02.273Z,102101.31
2019-02-12T08:57:33.814Z,102110.22
2019-02-12T09:00:24.762Z,102101.86
2019-02-12T09:03:25.366Z,102108.47
2019-02-12T09:06:16.583Z,102124.46
2019-02-12T09:09:13.941Z,102120.92
2019-02-12T09:11:48.343Z,102117.41
2019-02-12T09:14:19.850Z,102127.12
2019-02-12T09:16:54.015Z,102131.56
2019-02-12T09:19:31.347Z,102133.75
2019-02-12T09:22:09.048Z,102136.09
2019-02-12T09:24:58.520Z,102137.80
2019-02-12T09:27:52.761Z,102139.56
2019-02-12T09:30:24.284Z,102144.94
2019-02-12T09:33:13.834Z,102141.00
2019-02-12T09:36:01.695Z,102147.70
2019-02-12T09:38:45.380Z,102144.58
2019-02-12T09:41:22.187Z,102151.22
2019-02-12T09:43:59.531Z,102169.77
2019-02-12T09:46:40.005Z,102172.44
2019-02-12T09:49:26.680Z,102179.61
2019-02-12T09:52:16.635Z,102177.84
2019-02-12T09:55:00.036Z,102190.70
2019-02-12T09:57:51.873Z,102198.27
2019-02-12T10:00:35.530Z,102191.20
2019-02-12T10:03:26.367Z,102199.66
2019-02-12T10:06:21.294Z,102205.41
2019-02-12T10:09:09.641Z,102204.05
2019-02-12T10:12:14.379Z,102203.59
2019-02-12T10:14:54.523Z,102191.55
2019-02-12T10:17:34.932Z,102199.55
2019-02-12T10:20:06.459Z,102204.45
2019-02-12T10:22:53.025Z,102210.70
2019-02-12T10:25:23.549Z,102208.94
2019-02-12T10:28:10.410Z,102214.28
2019-02-12T10:30:50.300Z,102227.60
2019-02-12T10:33:18.789Z,102223.59
2019-02-12T10:35:47.253Z,102232.05
2019-02-12T10:38:15.734Z,102232.91
2019-02-12T10:40:44.179Z,102225.83
2019-02-12T10:43:12.636Z,102224.48
2019-02-12T10:45:41.121Z,102227.59
2019-02-12T10:48:09.581Z,102224.92
2019-02-12T10:50:38.081Z,102233.80
2019-02-12T10:53:06.519Z,102232.03
2019-02-12T10:55:35.058Z,102222.72
2019-02-12T10:58:03.549Z,102234.70
2019-02-12T11:00:32.029Z,102225.82
2019-02-12T11:03:00.478Z,102230.70
2019-02-12T11:05:28.980Z,102229.38
2019-02-12T11:07:57.430Z,102229.77
2019-02-12T11:10:25.914Z,102234.25
2019-02-12T11:12:54.372Z,102232.92
2019-02-12T11:15:22.850Z,102233.37
2019-02-12T11:17:51.302Z,102230.25
2019-02-12T11:20:19.777Z,102239.14
2019-02-12T11:22:48.300Z,102243.53
2019-02-12T11:25:16.847Z,102235.59
2019-02-12T11:27:45.318Z,102238.71
2019-02-12T11:30:14.253Z,102236.03
2019-02-12T11:32:42.697Z,102240.92
2019-02-12T11:35:13.881Z,102236.49
2019-02-12T11:37:42.334Z,102236.02
2019-02-12T11:40:13.439Z,102244.86
2019-02-12T11:42:42.118Z,102242.22
2019-02-12T11:45:15.281Z,102247.05
2019-02-12T11:47:43.724Z,102254.20
2019-02-12T11:50:12.284Z,102252.78
2019-02-12T11:52:40.752Z,102251.47
2019-02-12T11:55:14.662Z,102250.95
2019-02-12T11:57:43.119Z,102252.73
2019-02-12T12:00:15.391Z,102252.21
2019-02-12T12:02:43.841Z,102262.45
2019-02-12T12:05:12.314Z,102261.15
2019-02-12T12:07:40.779Z,102265.11
2019-02-12T12:10:11.036Z,102266.45
2019-02-12T12:12:39.506Z,102268.11
2019-02-12T12:15:11.034Z,102274.29
2019-02-12T12:17:39.493Z,102277.80
2019-02-12T12:20:13.331Z,102278.66
2019-02-12T12:22:41.787Z,102274.27
2019-02-12T12:25:11.877Z,102278.70
2019-02-12T12:27:40.413Z,102289.33
2019-02-12T12:30:13.170Z,102289.39
2019-02-12T12:32:41.627Z,102298.25
2019-02-12T12:35:11.437Z,102293.78
2019-02-12T12:37:39.982Z,102296.87
2019-02-12T12:40:13.036Z,102296.42
2019-02-12T12:42:41.514Z,102297.41
2019-02-12T12:45:14.120Z,102293.08
2019-02-12T12:47:42.680Z,102301.53
2019-02-12T12:50:12.794Z,102300.18
2019-02-12T12:52:42.127Z,102308.16
2019-02-12T12:55:11.121Z,102319.69
2019-02-12T12:57:41.857Z,102314.86
2019-02-12T13:00:12.883Z,102322.42
2019-02-12T13:02:41.361Z,102316.30
2019-02-12T13:05:11.095Z,102319.00
2019-02-12T13:07:39.723Z,102327.42
2019-02-12T13:10:13.493Z,102327.89
2019-02-12T13:12:41.969Z,102336.77
2019-02-12T13:15:13.005Z,102324.31
2019-02-12T13:17:41.492Z,102329.63
2019-02-12T13:20:12.502Z,102331.87
2019-02-12T13:22:40.987Z,102331.91
2019-02-12T13:25:10.695Z,102330.16
2019-02-12T13:27:39.168Z,102319.96
2019-02-12T13:30:10.699Z,102326.62
2019-02-12T13:32:39.150Z,102321.73
2019-02-12T13:35:09.062Z,102324.41
2019-02-12T13:37:37.539Z,102331.50
2019-02-12T13:40:09.044Z,102331.95
2019-02-12T13:42:37.529Z,102330.63
2019-02-12T13:45:08.684Z,102351.45
2019-02-12T13:47:37.164Z,102353.67
2019-02-12T13:50:07.625Z,102354.09
2019-02-12T13:52:36.579Z,102355.37
2019-02-12T13:55:07.288Z,102355.83
2019-02-12T13:57:36.895Z,102355.83
2019-02-12T14:00:11.549Z,102362.05
2019-02-12T14:02:40.030Z,102370.44
2019-02-12T14:05:14.232Z,102369.09
2019-02-12T14:07:42.738Z,102368.22
2019-02-12T14:10:11.338Z,102373.99
2019-02-12T14:12:39.817Z,102369.11
2019-02-12T14:15:12.966Z,102373.97
2019-02-12T14:17:41.446Z,102377.90
2019-02-12T14:20:14.690Z,102368.65
2019-02-12T14:22:43.164Z,102380.13
2019-02-12T14:25:13.362Z,102379.66
2019-02-12T14:27:41.851Z,102385.00
2019-02-12T14:30:13.218Z,102387.17
2019-02-12T14:32:41.684Z,102386.24
2019-02-12T14:35:11.972Z,102386.66
2019-02-12T14:37:40.454Z,102387.12
2019-02-12T14:40:13.984Z,102391.52
2019-02-12T14:42:42.465Z,102395.08
2019-02-12T14:45:13.792Z,102387.91
2019-02-12T14:47:42.267Z,102391.03
2019-02-12T14:50:13.239Z,102408.94
2019-02-12T14:52:41.724Z,102412.58
2019-02-12T14:55:10.242Z,102401.07
2019-02-12T14:57:38.714Z,102404.16
2019-02-12T15:00:15.328Z,102410.83
2019-02-12T15:02:43.810Z,102418.20
2019-02-12T15:05:12.257Z,102415.94
2019-02-12T15:07:40.730Z,102424.36
2019-02-12T15:10:11.536Z,102431.38
2019-02-12T15:12:40.017Z,102436.70
2019-02-12T15:15:10.008Z,102435.34
2019-02-12T15:17:38.488Z,102438.86
2019-02-12T15:20:13.962Z,102437.05
2019-02-12T15:22:42.447Z,102429.97
2019-02-12T15:25:12.253Z,102436.17
2019-02-12T15:27:40.736Z,102441.48
2019-02-12T15:30:12.366Z,102438.74
2019-02-12T15:32:40.844Z,102434.69
2019-02-12T15:35:10.624Z,102433.84
2019-02-12T15:37:39.187Z,102433.33
2019-02-12T15:40:13.114Z,102436.84
2019-02-12T15:42:41.615Z,102442.60
2019-02-12T15:45:18.477Z,102439.47
2019-02-12T15:47:46.958Z,102443.93
2019-02-12T15:50:15.408Z,102452.24
2019-02-12T15:52:43.891Z,102450.03
2019-02-12T15:55:13.592Z,102447.81
2019-02-12T15:57:45.145Z,102446.00
2019-02-12T16:00:15.691Z,102446.89
2019-02-12T16:02:45.022Z,102450.84
2019-02-12T16:05:13.962Z,102452.58
2019-02-12T16:07:43.008Z,102448.55
2019-02-12T16:10:16.873Z,102451.17
2019-02-12T16:12:46.524Z,102448.92
2019-02-12T16:15:17.191Z,102448.03
2019-02-12T16:17:45.730Z,102449.72
2019-02-12T16:20:14.252Z,102464.73
2019-02-12T16:22:42.800Z,102463.39
2019-02-12T16:25:12.892Z,102466.89
2019-02-12T16:27:41.366Z,102465.97
2019-02-12T16:30:18.293Z,102469.47
2019-02-12T16:32:46.762Z,102469.47
2019-02-12T16:35:16.660Z,102470.70
2019-02-12T16:37:45.216Z,102474.73
2019-02-12T16:40:18.211Z,102483.09
2019-02-12T16:42:46.829Z,102486.63
2019-02-12T16:45:21.043Z,102495.44
2019-02-12T16:47:49.527Z,102496.72
2019-02-12T16:50:18.067Z,102495.77
2019-02-12T16:52:46.551Z,102501.03
2019-02-12T16:55:15.017Z,102504.09
2019-02-12T16:57:43.494Z,102510.72
2019-02-12T17:00:17.133Z,102505.80
2019-02-12T17:02:46.732Z,102511.06
2019-02-12T17:05:15.728Z,102515.86
2019-02-12T17:07:45.460Z,102522.02
2019-02-12T17:10:14.937Z,102525.49
2019-02-12T17:12:43.563Z,102529.95
2019-02-12T17:15:13.782Z,102535.61
2019-02-12T17:17:42.265Z,102538.69
2019-02-12T17:20:24.554Z,102538.19
2019-02-12T17:22:53.038Z,102543.81
2019-02-12T17:25:21.504Z,102547.81
2019-02-12T17:27:49.977Z,102548.23
2019-02-12T17:30:19.010Z,102545.98
2019-02-12T17:32:47.612Z,102559.67
2019-02-12T17:35:16.015Z,102556.91
2019-02-12T17:37:44.461Z,102556.77
2019-02-12T17:40:20.396Z,102556.83
2019-02-12T17:42:48.854Z,102559.05
2019-02-12T17:45:19.524Z,102563.77
2019-02-12T17:47:47.995Z,102569.98
2019-02-12T17:50:16.803Z,102569.89
2019-02-12T17:52:45.262Z,102566.82
2019-02-12T17:55:13.876Z,102567.11
2019-02-12T17:57:42.344Z,102575.95
2019-02-12T18:00:15.186Z,102568.81
2019-02-12T18:02:43.713Z,102571.48
2019-02-12T18:05:12.189Z,102577.58
2019-02-12T18:07:40.638Z,102578.84
2019-02-12T18:10:11.230Z,102577.95
2019-02-12T18:12:39.684Z,102577.90
2019-02-12T18:15:11.141Z,102577.45
2019-02-12T18:17:39.606Z,102578.30
2019-02-12T18:20:10.630Z,102579.11
2019-02-12T18:22:39.082Z,102583.49
2019-02-12T18:25:09.811Z,102573.70
2019-02-12T18:27:38.396Z,102580.30
2019-02-12T18:30:15.509Z,102574.59
2019-02-12T18:32:43.962Z,102580.77
2019-02-12T18:35:12.442Z,102584.12
2019-02-12T18:37:40.891Z,102588.63
2019-02-12T18:40:14.045Z,102586.80
2019-02-12T18:42:42.499Z,102585.02
2019-02-12T18:45:16.469Z,102590.27
2019-02-12T18:47:44.925Z,102585.91
2019-02-12T18:50:13.468Z,102584.58
2019-02-12T18:52:41.985Z,102593.72
2019-02-12T18:55:12.924Z,102596.79
2019-02-12T18:57:41.400Z,102597.30
2019-02-12T19:00:13.261Z,102599.44
2019-02-12T19:02:41.720Z,102599.83
2019-02-12T19:05:11.239Z,102602.44
2019-02-12T19:07:39.699Z,102602.00
2019-02-12T19:10:16.505Z,102604.22
2019-02-12T19:12:44.986Z,102610.84
2019-02-12T19:15:15.642Z,102607.32
2019-02-12T19:17:46.409Z,102603.80
2019-02-12T19:20:14.841Z,102610.91
2019-02-12T19:22:43.316Z,102603.24
2019-02-12T19:25:12.085Z,102607.77
2019-02-12T19:27:40.612Z,102610.47
2019-02-12T19:30:16.163Z,102614.52
2019-02-12T19:32:44.792Z,102613.07
2019-02-12T19:35:13.442Z,102619.31
2019-02-12T19:37:41.891Z,102611.43
2019-02-12T19:40:11.821Z,102607.91
2019-02-12T19:42:40.276Z,102611.06
2019-02-12T19:45:16.938Z,102612.33
2019-02-12T19:47:45.496Z,102610.19
2019-02-12T19:50:14.068Z,102606.60
2019-02-12T19:52:42.516Z,102610.20
2019-02-12T19:55:11.534Z,102606.13
2019-02-12T19:57:39.997Z,102602.16
2019-02-12T20:00:15.555Z,102607.47
2019-02-12T20:02:44.014Z,102608.30
2019-02-12T20:05:12.774Z,102610.49
2019-02-12T20:07:41.211Z,102617.55
2019-02-12T20:10:14.139Z,102620.63
2019-02-12T20:12:42.582Z,102620.19
2019-02-12T20:15:22.235Z,102620.73
2019-02-12T20:17:50.710Z,102623.28
2019-02-12T20:20:19.188Z,102616.73
2019-02-12T20:22:47.668Z,102624.71
2019-02-12T20:25:16.220Z,102624.78
2019-02-12T20:27:44.691Z,102621.61
2019-02-12T20:30:15.031Z,102618.51
2019-02-12T20:32:43.480Z,102617.55
2019-02-12T20:35:16.947Z,102622.94
2019-02-12T20:37:45.418Z,102619.24
2019-02-12T20:40:14.632Z,102619.31
2019-02-12T20:42:43.102Z,102618.34
2019-02-12T20:45:16.977Z,102621.50
2019-02-12T20:47:45.429Z,102622.55
2019-02-12T20:50:18.644Z,102625.65
2019-02-12T20:52:47.104Z,102626.03
2019-02-12T20:55:15.753Z,102629.61
2019-02-12T20:57:44.219Z,102625.66
2019-02-12T21:00:18.618Z,102627.08
2019-02-12T21:02:47.075Z,102630.13
2019-02-12T21:05:16.705Z,102628.37
2019-02-12T21:07:45.164Z,102620.44
2019-02-12T21:10:19.100Z,102620.88
2019-02-12T21:12:47.832Z,102624.42
2019-02-12T21:15:21.070Z,102629.86
2019-02-12T21:17:49.533Z,102623.17
2019-02-12T21:20:18.064Z,102616.22
2019-02-12T21:22:46.550Z,102615.28
2019-02-12T21:25:16.236Z,102613.94
2019-02-12T21:27:44.713Z,102611.69
2019-02-12T21:30:24.727Z,102617.06
2019-02-12T21:32:53.187Z,102617.00
2019-02-12T21:35:21.733Z,102620.94
2019-02-12T21:37:50.190Z,102614.77
2019-02-12T21:40:21.223Z,102616.96
2019-02-12T21:42:49.916Z,102611.69
2019-02-12T21:45:18.393Z,102616.39
2019-02-12T21:47:47.058Z,102611.53
2019-02-12T21:50:15.625Z,102617.80
2019-02-12T21:52:44.082Z,102617.41
2019-02-12T21:55:20.495Z,102617.85
2019-02-12T21:57:49.084Z,102621.89
2019-02-12T22:00:22.671Z,102625.44
2019-02-12T22:02:51.137Z,102627.71
2019-02-12T22:05:19.792Z,102626.47
2019-02-12T22:07:48.265Z,102621.18
2019-02-12T22:10:25.134Z,102620.74
2019-02-12T22:12:53.589Z,102621.26
2019-02-12T22:15:22.105Z,102625.31
2019-02-12T22:17:50.574Z,102629.28
2019-02-12T22:20:21.163Z,102631.18
2019-02-12T22:22:49.616Z,102630.37
2019-02-12T22:25:18.267Z,102633.53
2019-02-12T22:27:46.723Z,102624.70
2019-02-12T22:30:21.273Z,102630.88
2019-02-12T22:32:49.720Z,102622.56
2019-02-12T22:35:18.210Z,102634.58
2019-02-12T22:37:46.989Z,102635.08
2019-02-12T22:40:16.509Z,102633.33
2019-02-12T22:42:45.044Z,102631.55
2019-02-12T22:45:21.378Z,102632.51
2019-02-12T22:47:57.599Z,102631.18
2019-02-12T22:50:28.797Z,102626.31
2019-02-12T22:52:58.237Z,102628.59
2019-02-12T22:55:27.446Z,102634.84
2019-02-12T22:57:57.285Z,102631.81
2019-02-12T23:00:45.204Z,102632.20
2019-02-12T23:03:13.723Z,102634.91
2019-02-12T23:05:42.205Z,102634.97
2019-02-12T23:08:10.660Z,102626.20
2019-02-12T23:10:39.145Z,102622.23
2019-02-12T23:13:07.625Z,102624.98
2019-02-12T23:15:36.283Z,102621.46
2019-02-12T23:18:04.750Z,102623.72
2019-02-12T23:20:33.203Z,102617.16
2019-02-12T23:23:01.683Z,102624.69
2019-02-12T23:25:30.160Z,102610.57
2019-02-12T23:27:58.647Z,102613.25
2019-02-12T23:30:27.122Z,102607.55
2019-02-12T23:32:55.771Z,102607.61
2019-02-12T23:35:24.220Z,102614.30
2019-02-12T23:37:52.697Z,102612.98
2019-02-12T23:40:21.151Z,102613.03
2019-02-12T23:42:49.635Z,102613.53
2019-02-12T23:45:18.085Z,102606.91
2019-02-12T23:47:46.574Z,102621.50
2019-02-12T23:50:15.041Z,102610.42
2019-02-12T23:52:43.592Z,102612.70
2019-02-12T23:55:12.046Z,102611.81
2019-02-12T23:57:40.533Z,102614.91
